Time,TemperatureF,DewpointF,PressureIn,WindDirection,WindDirectionDegrees,WindSpeedMPH,WindSpeedGustMPH,Humidity,HourlyPrecipIn,Conditions,Clouds,dailyrainin,SoftwareType,DateUTC
2013-06-24 00:11:00,68.5,64.0,29.97,ESE,107,0.0,2.0,86,0.00,,,0.01,weatherlink.com 1.10,2013-06-24 04:11:00,
2013-06-24 00:26:00,68.5,65.0,29.98,ESE,107,0.0,2.0,87,0.00,,,0.01,weatherlink.com 1.10,2013-06-24 04:26:00,
2013-06-24 00:41:00,68.0,64.0,29.97,ESE,103,1.0,3.0,88,0.00,,,0.01,weatherlink.com 1.10,2013-06-24 04:41:00,
2013-06-24 00:56:00,67.9,64.0,29.98,SW,226,2.0,4.0,88,0.00,,,0.00,weatherlink.com 1.10,2013-06-24 04:56:00,
2013-06-24 01:11:00,67.5,64.0,29.98,NE,34,0.0,0.0,89,0.00,,,0.00,weatherlink.com 1.10,2013-06-24 05:11:00,
2013-06-24 01:26:00,67.3,64.0,29.98,NE,34,0.0,0.0,89,0.00,,,0.00,weatherlink.com 1.10,2013-06-24 05:26:00,
2013-06-24 01:42:00,66.9,64.0,29.97,East,82,0.0,0.0,90,0.00,,,0.00,weatherlink.com 1.10,2013-06-24 05:42:00,
2013-06-24 01:57:00,66.7,64.0,29.97,East,82,0.0,0.0,90,0.00,,,0.00,weatherlink.com 1.10,2013-06-24 05:57:00,
2013-06-24 02:12:00,66.1,64.0,29.97,East,82,0.0,0.0,91,0.00,,,0.00,weatherlink.com 1.10,2013-06-24 06:12:00,
2013-06-24 02:27:00,65.7,63.0,29.97,East,84,0.0,0.0,92,0.00,,,0.00,weatherlink.com 1.10,2013-06-24 06:27:00,
2013-06-24 02:42:00,65.2,63.0,29.97,East,84,0.0,0.0,92,0.00,,,0.00,weatherlink.com 1.10,2013-06-24 06:42:00,
2013-06-24 02:57:00,64.9,63.0,29.97,East,84,0.0,0.0,92,0.00,,,0.00,weatherlink.com 1.10,2013-06-24 06:57:00,
2013-06-24 03:27:00,64.2,62.0,29.96,East,84,0.0,0.0,93,0.00,,,0.00,weatherlink.com 1.10,2013-06-24 07:27:00,
2013-06-24 03:42:00,63.8,62.0,29.96,East,84,0.0,0.0,94,0.00,,,0.00,weatherlink.com 1.10,2013-06-24 07:42:00,
2013-06-24 03:57:00,63.7,62.0,29.96,East,84,0.0,0.0,94,0.00,,,0.00,weatherlink.com 1.10,2013-06-24 07:57:00,
2013-06-24 04:12:00,63.4,62.0,29.96,East,84,0.0,0.0,94,0.00,,,0.00,weatherlink.com 1.10,2013-06-24 08:12:00,
2013-06-24 04:27:00,63.5,62.0,29.96,East,84,0.0,0.0,94,0.00,,,0.00,weatherlink.com 1.10,2013-06-24 08:27:00,
2013-06-24 04:42:00,63.7,62.0,29.95,East,84,0.0,0.0,95,0.00,,,0.00,weatherlink.com 1.10,2013-06-24 08:42:00,
2013-06-24 05:12:00,64.1,62.0,29.96,East,84,0.0,0.0,94,0.00,,,0.00,weatherlink.com 1.10,2013-06-24 09:12:00,
2013-06-24 05:27:00,64.1,62.0,29.96,East,84,0.0,0.0,94,0.00,,,0.00,weatherlink.com 1.10,2013-06-24 09:27:00,
2013-06-24 05:42:00,64.3,63.0,29.96,East,84,0.0,0.0,94,0.00,,,0.00,weatherlink.com 1.10,2013-06-24 09:42:00,
2013-06-24 05:57:00,64.3,63.0,29.96,East,84,0.0,0.0,94,0.00,,,0.00,weatherlink.com 1.10,2013-06-24 09:57:00,
2013-06-24 06:12:00,64.7,63.0,29.96,East,84,0.0,0.0,94,0.00,,,0.00,weatherlink.com 1.10,2013-06-24 10:12:00,
2013-06-24 06:42:00,65.5,64.0,29.97,East,84,0.0,0.0,93,0.00,,,0.00,weatherlink.com 1.10,2013-06-24 10:42:00,
2013-06-24 06:57:00,65.9,64.0,29.98,East,84,0.0,0.0,93,0.00,,,0.00,weatherlink.com 1.10,2013-06-24 10:57:00,
2013-06-24 07:12:00,66.5,65.0,29.98,East,84,0.0,0.0,93,0.00,,,0.00,weatherlink.com 1.10,2013-06-24 11:12:00,
2013-06-24 07:27:00,67.9,65.0,29.98,NNW,345,2.0,3.0,90,0.00,,,0.00,weatherlink.com 1.10,2013-06-24 11:27:00,
2013-06-24 07:42:00,71.0,65.0,29.98,North,355,3.0,4.0,82,0.00,,,0.00,weatherlink.com 1.10,2013-06-24 11:42:00,
2013-06-24 07:57:00,72.5,66.0,29.98,North,10,2.0,4.0,79,0.00,,,0.00,weatherlink.com 1.10,2013-06-24 11:57:00,
2013-06-24 08:12:00,73.9,66.0,29.99,NW,323,1.0,3.0,77,0.00,,,0.00,weatherlink.com 1.10,2013-06-24 12:12:00,
2013-06-24 08:27:00,75.6,67.0,29.98,NNW,329,1.0,6.0,75,0.00,,,0.00,weatherlink.com 1.10,2013-06-24 12:27:00,
2013-06-24 08:42:00,76.1,67.0,29.98,NNE,33,1.0,5.0,73,0.00,,,0.00,weatherlink.com 1.10,2013-06-24 12:42:00,
2013-06-24 09:27:00,77.9,67.0,29.98,NNW,342,4.0,7.0,70,0.00,,,0.00,weatherlink.com 1.10,2013-06-24 13:27:00,
2013-06-24 09:43:00,78.3,67.0,29.97,NNW,341,8.0,11.0,69,0.00,,,0.00,weatherlink.com 1.10,2013-06-24 13:43:00,
2013-06-24 10:13:00,78.7,66.0,29.97,WNW,284,5.0,12.0,66,0.00,,,0.00,weatherlink.com 1.10,2013-06-24 14:13:00,
2013-06-24 10:28:00,80.3,67.0,29.97,North,10,6.0,10.0,65,0.00,,,0.00,weatherlink.com 1.10,2013-06-24 14:28:00,
2013-06-24 10:43:00,81.2,67.0,29.97,WNW,296,5.0,11.0,63,0.00,,,0.00,weatherlink.com 1.10,2013-06-24 14:43:00,
2013-06-24 10:58:00,81.4,68.0,29.97,NNE,13,5.0,11.0,63,0.00,,,0.00,weatherlink.com 1.10,2013-06-24 14:58:00,
2013-06-24 11:13:00,81.9,68.0,29.97,ENE,76,1.0,8.0,63,0.00,,,0.00,weatherlink.com 1.10,2013-06-24 15:13:00,
2013-06-24 11:28:00,82.9,68.0,29.97,NNE,31,1.0,7.0,61,0.00,,,0.00,weatherlink.com 1.10,2013-06-24 15:28:00,
2013-06-24 11:43:00,83.2,67.0,29.97,WNW,285,2.0,11.0,59,0.00,,,0.00,weatherlink.com 1.10,2013-06-24 15:43:00,
2013-06-24 12:13:00,84.1,66.0,29.96,NNW,346,5.0,10.0,55,0.00,,,0.00,weatherlink.com 1.10,2013-06-24 16:13:00,
2013-06-24 12:43:00,83.9,67.0,29.96,North,360,4.0,8.0,57,0.00,,,0.00,weatherlink.com 1.10,2013-06-24 16:43:00,
2013-06-24 12:58:00,85.1,65.0,29.96,West,277,5.0,10.0,52,0.00,,,0.00,weatherlink.com 1.10,2013-06-24 16:58:00,
2013-06-24 13:13:00,84.9,64.0,29.95,NW,319,8.0,13.0,49,0.00,,,0.00,weatherlink.com 1.10,2013-06-24 17:13:00,
2013-06-24 13:28:00,84.8,64.0,29.95,NE,41,2.0,12.0,50,0.00,,,0.00,weatherlink.com 1.10,2013-06-24 17:28:00,
2013-06-24 13:43:00,84.4,64.0,29.94,West,277,6.0,9.0,51,0.00,,,0.00,weatherlink.com 1.10,2013-06-24 17:43:00,
2013-06-24 13:58:00,84.8,64.0,29.94,North,5,3.0,10.0,50,0.00,,,0.00,weatherlink.com 1.10,2013-06-24 17:58:00,
2013-06-24 14:13:00,85.2,64.0,29.93,NW,318,4.0,9.0,50,0.00,,,0.00,weatherlink.com 1.10,2013-06-24 18:13:00,
2013-06-24 14:28:00,85.5,65.0,29.92,North,5,3.0,11.0,50,0.00,,,0.00,weatherlink.com 1.10,2013-06-24 18:28:00,
2013-06-24 14:43:00,85.3,68.0,29.92,SW,234,1.0,5.0,56,0.00,,,0.00,weatherlink.com 1.10,2013-06-24 18:43:00,
2013-06-24 14:58:00,87.0,66.0,29.91,West,280,3.0,8.0,49,0.00,,,0.00,weatherlink.com 1.10,2013-06-24 18:58:00,
2013-06-24 15:13:00,84.3,65.0,29.91,North,360,5.0,9.0,52,0.00,,,0.00,weatherlink.com 1.10,2013-06-24 19:13:00,
2013-06-24 15:28:00,82.1,66.0,29.90,North,355,1.0,2.0,58,0.00,,,0.00,weatherlink.com 1.10,2013-06-24 19:28:00,
2013-06-24 15:43:00,80.5,67.0,29.89,North,11,0.0,3.0,64,0.00,,,0.00,weatherlink.com 1.10,2013-06-24 19:43:00,
2013-06-24 16:13:00,79.6,66.0,29.89,NW,310,3.0,3.0,64,0.00,,,0.00,weatherlink.com 1.10,2013-06-24 20:13:00,
2013-06-24 16:28:00,81.0,65.0,29.89,ENE,69,4.0,6.0,58,0.00,,,0.00,weatherlink.com 1.10,2013-06-24 20:28:00,
2013-06-24 16:43:00,81.0,65.0,29.91,NW,308,1.0,7.0,59,0.00,,,0.00,weatherlink.com 1.10,2013-06-24 20:43:00,
2013-06-24 17:13:00,82.1,66.0,29.89,WSW,246,5.0,9.0,58,0.00,,,0.00,weatherlink.com 1.10,2013-06-24 21:13:00,
2013-06-24 17:28:00,83.1,65.0,29.88,SSW,203,2.0,10.0,55,0.00,,,0.00,weatherlink.com 1.10,2013-06-24 21:28:00,
2013-06-24 17:43:00,83.2,66.0,29.90,North,5,5.0,8.0,56,0.00,,,0.00,weatherlink.com 1.10,2013-06-24 21:43:00,
2013-06-24 18:13:00,74.4,61.0,29.95,NNE,31,8.0,16.0,64,0.11,,,0.11,weatherlink.com 1.10,2013-06-24 22:13:00,
2013-06-24 18:29:00,68.1,62.0,29.95,NNE,20,2.0,9.0,82,0.15,,,0.15,weatherlink.com 1.10,2013-06-24 22:29:00,
2013-06-24 18:44:00,68.0,63.0,29.95,NNE,26,5.0,6.0,84,0.15,,,0.15,weatherlink.com 1.10,2013-06-24 22:44:00,
2013-06-24 18:59:00,67.6,62.0,29.95,North,10,2.0,8.0,83,0.15,,,0.15,weatherlink.com 1.10,2013-06-24 22:59:00,
2013-06-24 19:29:00,67.0,63.0,29.94,NNW,340,0.0,3.0,86,0.00,,,0.15,weatherlink.com 1.10,2013-06-24 23:29:00,
2013-06-24 19:44:00,67.1,63.0,29.94,NNE,15,2.0,3.0,86,0.00,,,0.15,weatherlink.com 1.10,2013-06-24 23:44:00,
2013-06-24 19:59:00,66.8,63.0,29.93,West,279,0.0,3.0,87,0.00,,,0.15,weatherlink.com 1.10,2013-06-24 23:59:00,
2013-06-24 20:14:00,66.5,63.0,29.93,North,10,0.0,1.0,88,0.00,,,0.15,weatherlink.com 1.10,2013-06-25 00:14:00,
2013-06-24 20:29:00,65.6,63.0,29.93,North,10,0.0,2.0,90,0.00,,,0.15,weatherlink.com 1.10,2013-06-25 00:29:00,
2013-06-24 20:59:00,64.8,62.0,29.94,ESE,122,1.0,1.0,91,0.00,,,0.15,weatherlink.com 1.10,2013-06-25 00:59:00,
2013-06-24 21:14:00,64.5,62.0,29.94,SSE,148,0.0,0.0,92,0.00,,,0.15,weatherlink.com 1.10,2013-06-25 01:14:00,
2013-06-24 21:29:00,63.9,62.0,29.95,NNE,28,0.0,3.0,92,0.00,,,0.15,weatherlink.com 1.10,2013-06-25 01:29:00,
2013-06-24 21:59:00,63.2,61.0,29.95,East,96,0.0,3.0,93,0.00,,,0.15,weatherlink.com 1.10,2013-06-25 01:59:00,
2013-06-24 22:14:00,63.2,61.0,29.95,East,101,0.0,1.0,93,0.00,,,0.15,weatherlink.com 1.10,2013-06-25 02:14:00,
2013-06-24 22:29:00,62.9,61.0,29.93,East,101,0.0,0.0,94,0.00,,,0.15,weatherlink.com 1.10,2013-06-25 02:29:00,
2013-06-24 22:44:00,62.6,61.0,29.93,SE,145,0.0,5.0,93,0.00,,,0.15,weatherlink.com 1.10,2013-06-25 02:44:00,
2013-06-24 22:59:00,62.7,61.0,29.94,SE,145,0.0,0.0,93,0.00,,,0.15,weatherlink.com 1.10,2013-06-25 02:59:00,
2013-06-24 23:14:00,62.1,60.0,29.94,ENE,76,0.0,0.0,93,0.00,,,0.15,weatherlink.com 1.10,2013-06-25 03:14:00,
2013-06-24 23:29:00,62.1,60.0,29.95,ENE,76,0.0,0.0,94,0.00,,,0.15,weatherlink.com 1.10,2013-06-25 03:29:00,
2013-06-24 23:44:00,61.8,60.0,29.95,ENE,76,0.0,0.0,93,0.00,,,0.15,weatherlink.com 1.10,2013-06-25 03:44:00,